Terminal Aerodrome Forecast
Issued by NWS

Current Version | Previous Version | Text Only | Print | Product List | Glossary On
Versions: 1 2 3 4 5 6 7 8 9 10 11 12
000
FTUS45 KRIW 270527
TAFCPR
TAF
KCPR 270527Z 2706/2806 10009KT P6SM VCSH FEW070 SCT110
     FM271100 VRB06KT P6SM FEW110
     FM272100 06008KT P6SM VCTS SCT080CB SCT120
     FM280200 09012G18KT P6SM VCTS SCT070CB BKN120=

USA.gov is the U.S. government's official web portal to all federal, state and local government web resources and services.